createdAt,value
2022-08-31T00:02:43.015Z,101178.03
2022-08-31T00:05:10.741Z,101178.59
2022-08-31T00:07:40.200Z,101183.00
2022-08-31T00:10:14.832Z,101185.19
2022-08-31T00:12:49.074Z,101179.16
2022-08-31T00:15:19.347Z,101178.91
2022-08-31T00:17:46.857Z,101179.47
2022-08-31T00:20:32.647Z,101184.09
2022-08-31T00:23:02.899Z,101168.25
2022-08-31T00:25:29.855Z,101163.34
2022-08-31T00:27:56.630Z,101161.41
2022-08-31T00:30:23.573Z,101155.13
2022-08-31T00:32:50.468Z,101154.56
2022-08-31T00:35:17.274Z,101155.41
2022-08-31T00:37:44.070Z,101162.50
2022-08-31T00:40:11.409Z,101165.50
2022-08-31T00:42:38.191Z,101155.41
2022-08-31T00:45:05.343Z,101160.03
2022-08-31T00:47:32.151Z,101165.50
2022-08-31T00:49:59.744Z,101161.69
2022-08-31T00:52:39.960Z,101158.09
2022-08-31T00:55:32.133Z,101158.09
2022-08-31T00:58:03.511Z,101158.16
2022-08-31T01:00:31.168Z,101162.78
2022-08-31T01:03:02.051Z,101162.78
2022-08-31T01:05:30.940Z,101164.44
2022-08-31T01:07:59.519Z,101166.63
2022-08-31T01:10:31.837Z,101160.59
2022-08-31T01:12:59.663Z,101169.91
2022-08-31T01:15:29.128Z,101170.47
2022-08-31T01:17:59.139Z,101166.91
2022-08-31T01:20:25.676Z,101160.34
2022-08-31T01:22:52.198Z,101159.53
2022-08-31T01:25:19.514Z,101174.03
2022-08-31T01:27:46.140Z,101170.75
2022-08-31T01:30:22.316Z,101177.59
2022-08-31T01:32:49.296Z,101177.59
2022-08-31T01:35:16.123Z,101174.84
2022-08-31T01:37:43.028Z,101173.19
2022-08-31T01:40:10.534Z,101174.56
2022-08-31T01:42:37.263Z,101173.75
2022-08-31T01:45:05.696Z,101172.91
2022-08-31T01:47:32.268Z,101169.63
2022-08-31T01:49:58.792Z,101167.16
2022-08-31T01:52:27.965Z,101167.16
2022-08-31T01:54:55.398Z,101172.06
2022-08-31T01:57:33.546Z,101166.06
2022-08-31T02:00:03.520Z,101168.81
2022-08-31T02:02:30.208Z,101178.38
2022-08-31T02:04:56.833Z,101178.66
2022-08-31T02:07:23.390Z,101175.34
2022-08-31T02:09:49.897Z,101170.16
2022-08-31T02:12:17.581Z,101178.66
2022-08-31T02:14:44.253Z,101176.19
2022-08-31T02:17:10.893Z,101169.09
2022-08-31T02:19:37.489Z,101174.00
2022-08-31T02:22:04.193Z,101185.19
2022-08-31T02:24:31.033Z,101185.19
2022-08-31T02:26:57.673Z,101179.44
2022-08-31T02:29:24.261Z,101180.84
2022-08-31T02:31:50.896Z,101176.19
2022-08-31T02:34:17.459Z,101179.19
2022-08-31T02:36:45.412Z,101170.44
2022-08-31T02:39:13.686Z,101179.19
2022-08-31T02:41:41.724Z,101169.63
2022-08-31T02:44:08.430Z,101173.44
2022-08-31T02:46:35.288Z,101171.78
2022-08-31T02:49:02.170Z,101172.88
2022-08-31T02:51:28.869Z,101181.06
2022-08-31T02:53:55.593Z,101175.06
2022-08-31T02:56:23.800Z,101181.63
2022-08-31T02:58:54.952Z,101179.19
2022-08-31T03:01:23.287Z,101176.72
2022-08-31T03:03:50.157Z,101174.25
2022-08-31T03:06:18.358Z,101173.41
2022-08-31T03:08:46.022Z,101169.31
2022-08-31T03:11:12.974Z,101170.16
2022-08-31T03:13:40.483Z,101166.84
2022-08-31T03:16:07.857Z,101160.03
2022-08-31T03:18:34.551Z,101166.56
2022-08-31T03:21:01.146Z,101162.50
2022-08-31T03:23:27.782Z,101165.47
2022-08-31T03:25:54.350Z,101166.59
2022-08-31T03:28:20.986Z,101153.44
2022-08-31T03:30:47.897Z,101158.09
2022-08-31T03:33:14.619Z,101158.38
2022-08-31T03:35:46.177Z,101159.47
2022-08-31T03:38:14.070Z,101172.03
2022-08-31T03:40:42.139Z,101158.91
2022-08-31T03:43:11.493Z,101158.38
2022-08-31T03:45:40.459Z,101163.84
2022-08-31T03:48:12.051Z,101160.53
2022-08-31T03:50:39.387Z,101163.53
2022-08-31T03:53:07.533Z,101162.72
2022-08-31T03:55:38.562Z,101162.72
2022-08-31T03:58:06.351Z,101175.03
2022-08-31T04:00:33.881Z,101178.00
2022-08-31T04:03:01.645Z,101180.16
2022-08-31T04:05:30.276Z,101182.88
2022-08-31T04:07:57.220Z,101181.50
2022-08-31T04:10:24.069Z,101178.25
2022-08-31T04:12:50.897Z,101191.91
2022-08-31T04:15:18.801Z,101186.72
2022-08-31T04:17:46.563Z,101188.34
2022-08-31T04:20:13.742Z,101186.72
2022-08-31T04:22:41.936Z,101189.44
2022-08-31T04:25:10.511Z,101196.00
2022-08-31T04:27:38.395Z,101195.44
2022-08-31T04:30:07.789Z,101202.28
2022-08-31T04:32:35.230Z,101208.56
2022-08-31T04:35:02.064Z,101204.16
2022-08-31T04:37:29.489Z,101204.72
2022-08-31T04:39:59.088Z,101200.34
2022-08-31T04:42:26.207Z,101205.22
2022-08-31T04:44:52.745Z,101207.41
2022-08-31T04:47:20.513Z,101204.13
2022-08-31T04:49:47.813Z,101203.59
2022-08-31T04:52:14.364Z,101200.84
2022-08-31T04:54:40.901Z,101208.47
2022-08-31T04:57:07.646Z,101203.28
2022-08-31T04:59:34.221Z,101206.84
2022-08-31T05:02:00.858Z,101210.09
2022-08-31T05:04:29.162Z,101207.38
2022-08-31T05:06:55.810Z,101209.53
2022-08-31T05:09:23.738Z,101213.38
2022-08-31T05:11:53.062Z,101215.00
2022-08-31T05:14:22.043Z,101224.31
2022-08-31T05:16:49.517Z,101221.56
2022-08-31T05:19:16.151Z,101218.84
2022-08-31T05:21:44.021Z,101232.72
2022-08-31T05:24:17.224Z,101227.06
2022-08-31T05:26:50.043Z,101239.06
2022-08-31T05:29:25.651Z,101240.94
2022-08-31T05:31:52.889Z,101237.38
2022-08-31T05:34:20.851Z,101249.38
2022-08-31T05:36:52.719Z,101247.53
2022-08-31T05:39:19.667Z,101242.84
2022-08-31T05:41:47.630Z,101237.94
2022-08-31T05:44:15.694Z,101241.50
2022-08-31T05:46:43.032Z,101247.53
2022-08-31T05:49:10.991Z,101242.59
2022-08-31T05:51:38.918Z,101252.19
2022-08-31T05:54:06.637Z,101252.75
2022-08-31T05:56:34.242Z,101250.56
2022-08-31T05:59:00.778Z,101260.13
2022-08-31T06:01:35.386Z,101259.63
2022-08-31T06:04:02.906Z,101263.97
2022-08-31T06:06:29.610Z,101255.50
2022-08-31T06:08:57.334Z,101268.88
2022-08-31T06:11:26.989Z,101260.19
2022-08-31T06:13:55.722Z,101267.53
2022-08-31T06:16:23.159Z,101265.91
2022-08-31T06:18:53.554Z,101270.28
2022-08-31T06:21:26.221Z,101272.50
2022-08-31T06:23:58.052Z,101273.56
2022-08-31T06:26:26.887Z,101265.38
2022-08-31T06:28:55.711Z,101281.22
2022-08-31T06:31:30.537Z,101281.50
2022-08-31T06:33:57.840Z,101287.22
2022-08-31T06:36:28.157Z,101285.06
2022-08-31T06:38:57.586Z,101286.41
2022-08-31T06:41:34.331Z,101287.22
2022-08-31T06:44:08.078Z,101289.91
2022-08-31T06:46:36.750Z,101291.53
2022-08-31T06:49:04.335Z,101286.03
2022-08-31T06:51:36.507Z,101289.31
2022-08-31T06:54:27.550Z,101291.47
2022-08-31T06:56:51.676Z,101289.84
2022-08-31T06:59:18.247Z,101282.72
2022-08-31T07:01:44.910Z,101280.00
2022-08-31T07:04:12.340Z,101288.72
2022-08-31T07:06:42.300Z,101288.50
2022-08-31T07:09:12.024Z,101277.81
2022-08-31T07:11:48.013Z,101290.41
2022-08-31T07:14:17.636Z,101294.22
2022-08-31T07:16:46.072Z,101289.34
2022-08-31T07:19:13.924Z,101284.41
2022-08-31T07:21:49.732Z,101289.94
2022-08-31T07:24:18.590Z,101286.41
2022-08-31T07:26:50.590Z,101283.94
2022-08-31T07:29:18.903Z,101290.53
2022-08-31T07:31:48.993Z,101297.09
2022-08-31T07:34:25.872Z,101290.59
2022-08-31T07:37:15.032Z,101285.25
2022-08-31T07:40:06.371Z,101286.81
2022-08-31T07:42:38.739Z,101283.00
2022-08-31T07:45:12.182Z,101286.84
2022-08-31T07:47:45.329Z,101293.97
2022-08-31T07:50:13.933Z,101285.53
2022-08-31T07:52:48.451Z,101296.22
2022-08-31T07:55:17.802Z,101292.41
2022-08-31T07:57:44.935Z,101286.69
2022-08-31T08:00:20.946Z,101279.59
2022-08-31T08:02:53.295Z,101298.22
2022-08-31T08:05:26.714Z,101306.69
2022-08-31T08:07:57.544Z,101312.75
2022-08-31T08:10:24.328Z,101303.72
2022-08-31T08:13:05.119Z,101293.06
2022-08-31T08:15:35.670Z,101305.91
2022-08-31T08:18:04.282Z,101300.72
2022-08-31T08:20:38.083Z,101302.63
2022-08-31T08:23:27.831Z,101298.25
2022-08-31T08:25:55.419Z,101298.25
2022-08-31T08:28:38.763Z,101296.88
2022-08-31T08:31:07.571Z,101306.19
2022-08-31T08:33:35.939Z,101298.75
2022-08-31T08:36:07.773Z,101309.94
2022-08-31T08:38:39.049Z,101304.44
2022-08-31T08:41:15.492Z,101303.56
2022-08-31T08:43:52.324Z,101307.97
2022-08-31T08:46:36.612Z,101310.66
2022-08-31T08:49:18.012Z,101307.84
2022-08-31T08:51:46.336Z,101318.28
2022-08-31T08:54:19.286Z,101308.91
2022-08-31T08:56:49.294Z,101312.50
2022-08-31T08:59:19.619Z,101314.38
2022-08-31T09:01:49.619Z,101315.72
2022-08-31T09:04:25.000Z,101311.84
2022-08-31T09:07:34.476Z,101312.28
2022-08-31T09:10:07.790Z,101313.94
2022-08-31T09:12:58.584Z,101309.44
2022-08-31T09:15:38.450Z,101311.06
2022-08-31T09:18:20.095Z,101311.00
2022-08-31T09:21:17.330Z,101310.34
2022-08-31T09:23:49.278Z,101308.69
2022-08-31T09:26:18.045Z,101304.81
2022-08-31T09:28:49.657Z,101308.88
2022-08-31T09:31:32.994Z,101306.00
2022-08-31T09:34:01.111Z,101299.69
2022-08-31T09:36:41.037Z,101309.41
2022-08-31T09:39:20.053Z,101309.31
2022-08-31T09:41:48.727Z,101297.75
2022-08-31T09:44:32.669Z,101305.22
2022-08-31T09:47:05.420Z,101300.22
2022-08-31T09:49:34.459Z,101295.16
2022-08-31T09:52:46.543Z,101303.97
2022-08-31T09:55:28.138Z,101300.19
2022-08-31T09:57:56.205Z,101289.72
2022-08-31T10:00:34.398Z,101295.06
2022-08-31T10:03:36.081Z,101293.22
2022-08-31T10:06:04.134Z,101288.19
2022-08-31T10:08:40.579Z,101293.63
2022-08-31T10:11:15.978Z,101299.38
2022-08-31T10:13:50.411Z,101297.97
2022-08-31T10:16:25.642Z,101293.81
2022-08-31T10:19:03.157Z,101294.25
2022-08-31T10:21:52.344Z,101289.72
2022-08-31T10:24:34.566Z,101290.69
2022-08-31T10:27:13.720Z,101283.69
2022-08-31T10:29:56.218Z,101283.97
2022-08-31T10:32:43.587Z,101287.88
2022-08-31T10:35:19.532Z,101285.88
2022-08-31T10:38:08.303Z,101281.47
2022-08-31T10:40:43.265Z,101280.56
2022-08-31T10:43:17.786Z,101288.63
2022-08-31T10:45:49.046Z,101286.00
2022-08-31T10:48:18.358Z,101275.38
2022-08-31T10:50:48.685Z,101282.66
2022-08-31T10:53:15.532Z,101279.69
2022-08-31T10:56:02.345Z,101273.91
2022-08-31T10:58:41.035Z,101281.88
2022-08-31T11:01:20.605Z,101274.00
2022-08-31T11:04:12.837Z,101279.31
2022-08-31T11:06:52.451Z,101275.50
2022-08-31T11:09:44.160Z,101267.22
2022-08-31T11:12:15.887Z,101265.13
2022-08-31T11:14:45.326Z,101265.66
2022-08-31T11:17:54.108Z,101263.50
2022-08-31T11:20:47.172Z,101258.63
2022-08-31T11:23:29.877Z,101253.69
2022-08-31T11:26:14.420Z,101256.97
2022-08-31T11:28:54.590Z,101262.72
2022-08-31T11:31:25.389Z,101256.34
2022-08-31T11:34:15.578Z,101255.53
2022-08-31T11:36:48.108Z,101249.00
2022-08-31T11:39:17.453Z,101255.16
2022-08-31T11:41:49.416Z,101247.91
2022-08-31T11:44:39.513Z,101250.81
2022-08-31T11:47:07.122Z,101243.69
2022-08-31T11:49:38.401Z,101246.97
2022-08-31T11:52:12.122Z,101246.34
2022-08-31T11:54:42.015Z,101238.78
2022-08-31T11:57:15.485Z,101234.47
2022-08-31T11:59:46.047Z,101237.78
2022-08-31T12:02:22.964Z,101237.59
2022-08-31T12:04:52.177Z,101228.59
2022-08-31T12:07:24.909Z,101233.25
2022-08-31T12:10:13.781Z,101226.97
2022-08-31T12:12:59.010Z,101222.38
2022-08-31T12:16:04.118Z,101214.69
2022-08-31T12:18:51.582Z,101218.59
2022-08-31T12:21:57.900Z,101224.47
2022-08-31T12:24:27.380Z,101218.59
2022-08-31T12:27:13.949Z,101212.34
2022-08-31T12:29:41.431Z,101210.97
2022-08-31T12:32:11.035Z,101214.47
2022-08-31T12:34:54.820Z,101208.94
2022-08-31T12:37:22.420Z,101201.69
2022-08-31T12:39:49.391Z,101206.91
2022-08-31T12:42:16.042Z,101197.69
2022-08-31T12:44:51.112Z,101197.50
2022-08-31T12:47:55.914Z,101202.25
2022-08-31T12:50:36.602Z,101195.94
2022-08-31T12:53:33.617Z,101194.03
2022-08-31T12:56:05.414Z,101193.06
2022-08-31T12:58:51.139Z,101204.16
2022-08-31T13:01:25.827Z,101184.25
2022-08-31T13:03:58.181Z,101184.91
2022-08-31T13:06:37.268Z,101184.88
2022-08-31T13:09:05.782Z,101175.91
2022-08-31T13:11:42.546Z,101178.03
2022-08-31T13:14:18.797Z,101183.84
2022-08-31T13:17:19.095Z,101170.19
2022-08-31T13:19:56.871Z,101169.34
2022-08-31T13:22:42.790Z,101169.81
2022-08-31T13:25:35.950Z,101160.47
2022-08-31T13:28:30.052Z,101174.34
2022-08-31T13:31:03.741Z,101163.06
2022-08-31T13:33:40.503Z,101146.88
2022-08-31T13:36:13.181Z,101154.50
2022-08-31T13:39:05.713Z,101153.16
2022-08-31T13:41:38.522Z,101155.75
2022-08-31T13:44:11.813Z,101143.47
2022-08-31T13:46:44.431Z,101142.25
2022-08-31T13:49:34.269Z,101142.78
2022-08-31T13:52:03.218Z,101153.09
2022-08-31T13:54:33.583Z,101147.13
2022-08-31T13:57:12.069Z,101143.63
2022-08-31T13:59:40.984Z,101146.75
2022-08-31T14:02:16.518Z,101148.63
2022-08-31T14:04:49.117Z,101144.47
2022-08-31T14:07:45.941Z,101143.78
2022-08-31T14:10:22.522Z,101136.94
2022-08-31T14:13:04.279Z,101141.19
2022-08-31T14:15:56.301Z,101134.16
2022-08-31T14:18:28.929Z,101123.41
2022-08-31T14:21:24.189Z,101132.38
2022-08-31T14:23:51.794Z,101133.72
2022-08-31T14:26:22.913Z,101132.78
2022-08-31T14:28:53.267Z,101135.75
2022-08-31T14:31:25.126Z,101129.25
2022-08-31T14:34:07.992Z,101131.09
2022-08-31T14:36:43.758Z,101130.59
2022-08-31T14:39:10.589Z,101130.13
2022-08-31T14:41:37.564Z,101127.22
2022-08-31T14:44:09.386Z,101127.56
2022-08-31T14:46:39.013Z,101124.09
2022-08-31T14:49:07.346Z,101127.22
2022-08-31T14:51:35.657Z,101123.16
2022-08-31T14:54:02.482Z,101122.06
2022-08-31T14:56:33.275Z,101122.59
2022-08-31T14:59:04.758Z,101125.72
2022-08-31T15:01:35.823Z,101121.72
2022-08-31T15:04:04.201Z,101117.66
2022-08-31T15:06:33.087Z,101121.56
2022-08-31T15:09:05.091Z,101121.91
2022-08-31T15:11:37.074Z,101121.72
2022-08-31T15:14:05.882Z,101105.75
2022-08-31T15:16:32.582Z,101114.53
2022-08-31T15:18:59.625Z,101107.84
2022-08-31T15:21:26.645Z,101105.69
2022-08-31T15:23:53.254Z,101103.06
2022-08-31T15:26:21.676Z,101105.50
2022-08-31T15:28:52.608Z,101113.47
2022-08-31T15:31:25.797Z,101105.00
2022-08-31T15:33:55.438Z,101102.22
2022-08-31T15:36:25.082Z,101096.06
2022-08-31T15:38:55.561Z,101102.97
2022-08-31T15:41:23.639Z,101092.72
2022-08-31T15:43:52.147Z,101088.03
2022-08-31T15:46:40.554Z,101081.88
2022-08-31T15:49:09.887Z,101085.63
2022-08-31T15:51:49.073Z,101088.91
2022-08-31T15:54:22.612Z,101080.13
2022-08-31T15:56:50.957Z,101084.72
2022-08-31T15:59:17.572Z,101076.91
2022-08-31T16:01:44.288Z,101081.50
2022-08-31T16:04:16.292Z,101074.16
2022-08-31T16:06:42.931Z,101070.09
2022-08-31T16:09:09.805Z,101067.50
2022-08-31T16:11:40.351Z,101066.53
2022-08-31T16:14:11.008Z,101061.66
2022-08-31T16:16:41.322Z,101070.31
2022-08-31T16:19:19.477Z,101067.22
2022-08-31T16:21:56.314Z,101067.56
2022-08-31T16:24:25.106Z,101053.75
2022-08-31T16:26:54.281Z,101060.06
2022-08-31T16:29:24.882Z,101056.03
2022-08-31T16:31:51.739Z,101056.72
2022-08-31T16:34:19.925Z,101055.91
2022-08-31T16:36:49.022Z,101052.81
2022-08-31T16:39:17.043Z,101048.63
2022-08-31T16:41:44.758Z,101051.66
2022-08-31T16:44:19.581Z,101048.94
2022-08-31T16:46:46.995Z,101051.03
2022-08-31T16:49:32.349Z,101052.50
2022-08-31T16:52:00.712Z,101065.00
2022-08-31T16:54:28.759Z,101056.50
2022-08-31T16:56:57.633Z,101051.94
2022-08-31T16:59:29.286Z,101056.47
2022-08-31T17:01:56.486Z,101060.34
2022-08-31T17:04:50.586Z,101066.16
2022-08-31T17:07:15.585Z,101064.53
2022-08-31T17:09:42.685Z,101067.69
2022-08-31T17:12:13.349Z,101065.91
2022-08-31T17:14:50.197Z,101070.56
2022-08-31T17:17:21.595Z,101074.41
2022-08-31T17:19:49.024Z,101071.41
2022-08-31T17:22:24.526Z,101074.94
2022-08-31T17:24:57.714Z,101073.53
2022-08-31T17:27:25.671Z,101082.38
2022-08-31T17:29:56.329Z,101082.94
2022-08-31T17:32:26.130Z,101084.34
2022-08-31T17:34:54.666Z,101079.69
2022-08-31T17:37:26.897Z,101084.78
2022-08-31T17:39:54.918Z,101094.22
2022-08-31T17:42:23.394Z,101086.78
2022-08-31T17:44:53.118Z,101097.75
2022-08-31T17:47:21.874Z,101097.44
2022-08-31T17:49:50.796Z,101090.19
2022-08-31T17:52:21.704Z,101091.09
2022-08-31T17:54:51.157Z,101096.38
2022-08-31T17:57:22.449Z,101086.69
2022-08-31T17:59:49.223Z,101095.94
2022-08-31T18:02:22.854Z,101097.91
2022-08-31T18:04:49.629Z,101106.25
2022-08-31T18:07:24.914Z,101095.53
2022-08-31T18:09:51.524Z,101104.63
2022-08-31T18:12:22.043Z,101107.56
2022-08-31T18:14:49.524Z,101111.00
2022-08-31T18:17:17.239Z,101109.50
2022-08-31T18:19:45.275Z,101120.88
2022-08-31T18:22:15.753Z,101119.13
2022-08-31T18:24:43.244Z,101118.63
2022-08-31T18:27:11.991Z,101114.41
2022-08-31T18:29:39.507Z,101116.19
2022-08-31T18:32:07.840Z,101127.31
2022-08-31T18:34:39.027Z,101130.13
2022-08-31T18:37:07.146Z,101138.00
2022-08-31T18:39:58.990Z,101140.84
2022-08-31T18:42:46.313Z,101137.09
2022-08-31T18:45:15.975Z,101142.41
2022-08-31T18:47:43.519Z,101139.78
2022-08-31T18:50:10.529Z,101136.34
2022-08-31T18:52:40.448Z,101145.22
2022-08-31T18:55:15.548Z,101141.47
2022-08-31T18:57:48.708Z,101139.34
2022-08-31T19:00:17.798Z,101138.31
2022-08-31T19:02:44.904Z,101134.53
2022-08-31T19:05:13.052Z,101141.47
2022-08-31T19:07:41.397Z,101138.50
2022-08-31T19:10:13.699Z,101144.00
2022-08-31T19:12:42.853Z,101146.88
2022-08-31T19:15:11.376Z,101141.72
2022-08-31T19:17:40.236Z,101137.09
2022-08-31T19:20:10.315Z,101143.16
2022-08-31T19:22:37.901Z,101143.75
2022-08-31T19:25:05.401Z,101144.38
2022-08-31T19:27:34.140Z,101149.31
2022-08-31T19:30:00.977Z,101149.91
2022-08-31T19:32:28.001Z,101156.53
2022-08-31T19:34:54.766Z,101159.84
2022-08-31T19:37:21.445Z,101157.16
2022-08-31T19:39:48.029Z,101156.63
2022-08-31T19:42:16.388Z,101149.50
2022-08-31T19:44:55.773Z,101156.38
2022-08-31T19:47:34.905Z,101155.56
2022-08-31T19:50:02.089Z,101163.25
2022-08-31T19:52:28.730Z,101161.63
2022-08-31T19:54:55.381Z,101166.59
2022-08-31T19:57:22.654Z,101162.19
2022-08-31T19:59:49.911Z,101160.59
2022-08-31T20:02:17.243Z,101157.03
2022-08-31T20:04:45.442Z,101152.94
2022-08-31T20:07:14.456Z,101161.16
2022-08-31T20:09:41.194Z,101162.53
2022-08-31T20:12:08.345Z,101172.06
2022-08-31T20:14:35.770Z,101165.22
2022-08-31T20:17:03.038Z,101161.69
2022-08-31T20:19:36.195Z,101162.78
2022-08-31T20:22:06.676Z,101162.22
2022-08-31T20:24:35.897Z,101167.97
2022-08-31T20:27:09.570Z,101166.59
2022-08-31T20:29:38.837Z,101169.88
2022-08-31T20:32:07.894Z,101163.84
2022-08-31T20:34:34.486Z,101175.06
2022-08-31T20:37:01.670Z,101164.38
2022-08-31T20:39:30.511Z,101170.06
2022-08-31T20:41:59.105Z,101181.25
2022-08-31T20:44:29.656Z,101170.84
2022-08-31T20:47:17.464Z,101174.09
2022-08-31T20:49:47.252Z,101172.44
2022-08-31T20:52:16.741Z,101172.44
2022-08-31T20:54:43.813Z,101173.19
2022-08-31T20:57:13.604Z,101176.75
2022-08-31T20:59:41.529Z,101172.88
2022-08-31T21:02:10.098Z,101172.00
2022-08-31T21:04:40.741Z,101178.00
2022-08-31T21:07:10.501Z,101176.06
2022-08-31T21:09:37.401Z,101176.25
2022-08-31T21:12:07.301Z,101174.03
2022-08-31T21:14:36.673Z,101173.69
2022-08-31T21:17:06.219Z,101180.78
2022-08-31T21:19:37.202Z,101179.09
2022-08-31T21:22:06.716Z,101177.38
2022-08-31T21:24:36.385Z,101183.59
2022-08-31T21:27:04.014Z,101186.00
2022-08-31T21:29:30.705Z,101173.41
2022-08-31T21:32:03.332Z,101185.34
2022-08-31T21:34:30.570Z,101179.88
2022-08-31T21:36:57.221Z,101186.34
2022-08-31T21:39:24.869Z,101187.34
2022-08-31T21:41:51.449Z,101193.00
2022-08-31T21:44:20.814Z,101190.66
2022-08-31T21:46:50.800Z,101197.03
2022-08-31T21:49:18.325Z,101197.75
2022-08-31T21:51:54.289Z,101201.06
2022-08-31T21:54:27.356Z,101205.06
2022-08-31T21:56:57.345Z,101211.03
2022-08-31T21:59:26.586Z,101208.84
2022-08-31T22:02:00.389Z,101205.06
2022-08-31T22:04:31.910Z,101211.38
2022-08-31T22:06:59.572Z,101204.28
2022-08-31T22:09:27.593Z,101216.56
2022-08-31T22:11:57.575Z,101208.97
2022-08-31T22:14:29.735Z,101207.91
2022-08-31T22:16:57.911Z,101214.47
2022-08-31T22:19:27.176Z,101218.81
2022-08-31T22:21:59.109Z,101216.16
2022-08-31T22:24:32.457Z,101211.28
2022-08-31T22:27:02.333Z,101208.81
2022-08-31T22:29:31.811Z,101218.59
2022-08-31T22:32:08.530Z,101218.44
